Time;durP1;ratioP1;P1;durP2;ratioP2;P2;SDS_P1;SDS_P2;PMS_P1;PMS_P2;Temp;Humidity;BMP_temperature;BMP_pressure;BME280_temperature;BME280_humidity;BME280_pressure;Samples;Min_cycle;Max_cycle;Signal;HPM_P1;HPM_P2
2022/03/25 00:01:00;;;;;;;62.80;29.20;;;;;;;;;;5021631;28;20029;-67
2022/03/25 00:03:25;;;;;;;77.45;29.95;;;;;;;;;;5006358;28;20018;-67
2022/03/25 00:05:50;;;;;;;59.22;29.08;;;;;;;;;;5018366;28;20017;-67
2022/03/25 00:08:17;;;;;;;63.27;30.23;;;;;;;;;;5011563;28;20052;-67
2022/03/25 00:10:42;;;;;;;63.72;29.17;;;;;;;;;;5026448;28;20276;-68
2022/03/25 00:13:08;;;;;;;62.85;30.92;;;;;;;;;;5011591;28;20033;-67
2022/03/25 00:15:33;;;;;;;64.60;28.92;;;;;;;;;;5006176;28;20026;-67
2022/03/25 00:17:59;;;;;;;65.45;30.40;;;;;;;;;;5021311;28;20025;-66
2022/03/25 00:20:24;;;;;;;60.15;27.33;;;;;;;;;;5021975;28;20026;-70
2022/03/25 00:22:49;;;;;;;56.35;27.13;;;;;;;;;;5014412;28;20013;-68
2022/03/25 00:25:14;;;;;;;64.40;29.67;;;;;;;;;;5024833;28;20091;-67
2022/03/25 00:27:40;;;;;;;63.05;30.02;;;;;;;;;;5019031;28;20024;-69
2022/03/25 00:30:05;;;;;;;62.03;29.80;;;;;;;;;;5021627;28;20026;-68
2022/03/25 00:32:30;;;;;;;67.25;29.67;;;;;;;;;;5021962;28;20025;-66
2022/03/25 00:34:56;;;;;;;63.55;28.75;;;;;;;;;;5021783;28;20014;-68
2022/03/25 00:37:21;;;;;;;63.85;30.08;;;;;;;;;;5023753;28;20049;-69
2022/03/25 00:39:46;;;;;;;67.03;29.02;;;;;;;;;;5021136;28;20030;-67
2022/03/25 00:42:13;;;;;;;65.20;29.15;;;;;;;;;;5013642;28;20037;-69
2022/03/25 00:44:39;;;;;;;66.32;28.85;;;;;;;;;;5017463;28;20056;-67
2022/03/25 00:47:04;;;;;;;59.78;28.38;;;;;;;;;;5021018;28;20049;-67
2022/03/25 00:49:29;;;;;;;67.30;29.83;;;;;;;;;;5021780;28;20024;-67
2022/03/25 00:51:55;;;;;;;65.82;30.23;;;;;;;;;;5015236;28;20014;-67
2022/03/25 00:54:20;;;;;;;74.85;30.15;;;;;;;;;;5009297;28;20021;-67
2022/03/25 00:56:45;;;;;;;64.20;30.13;;;;;;;;;;5013068;28;20052;-67
2022/03/25 00:59:10;;;;;;;63.08;30.17;;;;;;;;;;5019892;28;20039;-67
2022/03/25 01:01:37;;;;;;;71.15;31.75;;;;;;;;;;5018501;28;20363;-67
2022/03/25 01:04:03;;;;;;;67.45;30.80;;;;;;;;;;5019954;28;20436;-67
2022/03/25 01:06:28;;;;;;;66.80;30.52;;;;;;;;;;5017496;28;20018;-67
2022/03/25 01:08:53;;;;;;;69.35;28.98;;;;;;;;;;5023771;28;20025;-66
2022/03/25 01:11:18;;;;;;;71.13;30.88;;;;;;;;;;5019699;28;20723;-66
2022/03/25 01:13:44;;;;;;;58.60;29.17;;;;;;;;;;5020005;28;20513;-67
2022/03/25 01:16:10;;;;;;;73.25;28.45;;;;;;;;;;5019659;28;20047;-67
2022/03/25 01:18:35;;;;;;;70.18;31.73;;;;;;;;;;5024324;28;20036;-67
2022/03/25 01:21:00;;;;;;;72.22;29.35;;;;;;;;;;5025052;28;20385;-67
2022/03/25 01:23:26;;;;;;;73.00;32.22;;;;;;;;;;5015824;28;20017;-69
2022/03/25 01:25:51;;;;;;;80.00;35.28;;;;;;;;;;5021618;28;20026;-67
2022/03/25 01:28:16;;;;;;;72.28;32.72;;;;;;;;;;5018275;28;20017;-67
2022/03/25 01:30:42;;;;;;;76.57;34.03;;;;;;;;;;5018092;28;20025;-66
2022/03/25 01:33:08;;;;;;;75.53;34.78;;;;;;;;;;5019358;28;20018;-68
2022/03/25 01:35:33;;;;;;;75.05;35.05;;;;;;;;;;5019880;28;20026;-67
2022/03/25 01:37:58;;;;;;;67.82;32.90;;;;;;;;;;5023761;28;20026;-67
2022/03/25 01:40:23;;;;;;;79.22;34.10;;;;;;;;;;5024844;28;20053;-67
2022/03/25 01:42:49;;;;;;;80.10;37.53;;;;;;;;;;5010312;28;20105;-67
2022/03/25 01:45:26;;;;;;;72.47;35.83;;;;;;;;;;5014481;28;20076;-68
2022/03/25 01:47:51;;;;;;;79.45;36.08;;;;;;;;;;5016628;28;20466;-68
2022/03/25 01:50:18;;;;;;;72.55;33.35;;;;;;;;;;5015704;28;20083;-68
2022/03/25 01:52:44;;;;;;;76.68;33.67;;;;;;;;;;4997025;28;20025;-68
2022/03/25 01:55:13;;;;;;;69.78;31.17;;;;;;;;;;5016624;28;20116;-67
2022/03/25 01:57:39;;;;;;;71.78;33.25;;;;;;;;;;5023128;28;20100;-67
2022/03/25 02:00:06;;;;;;;73.07;32.80;;;;;;;;;;5018664;28;20124;-68
2022/03/25 02:02:31;;;;;;;77.90;34.05;;;;;;;;;;5011808;28;20072;-68
2022/03/25 02:04:56;;;;;;;86.03;33.15;;;;;;;;;;5014466;28;20053;-68
2022/03/25 02:07:22;;;;;;;76.68;34.08;;;;;;;;;;5013433;28;20045;-68
2022/03/25 02:09:47;;;;;;;71.03;32.15;;;;;;;;;;5017353;28;20048;-68
2022/03/25 02:12:13;;;;;;;75.93;33.83;;;;;;;;;;5022084;28;20018;-68
2022/03/25 02:14:38;;;;;;;69.30;31.02;;;;;;;;;;5004977;28;20373;-67
2022/03/25 02:17:04;;;;;;;69.38;32.50;;;;;;;;;;5019139;28;20030;-67
2022/03/25 02:19:30;;;;;;;66.47;31.10;;;;;;;;;;5020681;28;20049;-68
2022/03/25 02:21:55;;;;;;;75.75;32.72;;;;;;;;;;5013289;28;20047;-67
2022/03/25 02:24:21;;;;;;;74.72;31.58;;;;;;;;;;5024901;28;20021;-68
2022/03/25 02:26:46;;;;;;;76.22;32.65;;;;;;;;;;5018181;28;20029;-68
2022/03/25 02:29:13;;;;;;;70.10;31.47;;;;;;;;;;5019100;28;20018;-68
2022/03/25 02:31:39;;;;;;;64.05;30.02;;;;;;;;;;5013956;28;20318;-67
2022/03/25 02:34:05;;;;;;;71.50;31.75;;;;;;;;;;5021278;28;20571;-67
2022/03/25 02:36:37;;;;;;;69.13;31.60;;;;;;;;;;5017063;28;20101;-68
2022/03/25 02:39:03;;;;;;;72.43;31.60;;;;;;;;;;5023733;28;20029;-67
2022/03/25 02:41:28;;;;;;;67.18;31.55;;;;;;;;;;5014651;28;20060;-68
2022/03/25 02:43:54;;;;;;;75.95;31.80;;;;;;;;;;5017969;28;20021;-68
2022/03/25 02:46:19;;;;;;;72.65;33.05;;;;;;;;;;5024122;28;20022;-68
2022/03/25 02:48:44;;;;;;;78.38;32.28;;;;;;;;;;5007112;28;20112;-68
2022/03/25 02:51:09;;;;;;;76.25;33.00;;;;;;;;;;5021919;28;20025;-68
2022/03/25 02:53:34;;;;;;;73.50;33.27;;;;;;;;;;5011635;28;20494;-67
2022/03/25 02:56:00;;;;;;;68.03;31.85;;;;;;;;;;5014840;28;20318;-68
2022/03/25 02:58:25;;;;;;;86.47;34.58;;;;;;;;;;5019519;28;20076;-67
2022/03/25 03:00:50;;;;;;;76.22;32.50;;;;;;;;;;5019977;28;20022;-68
2022/03/25 03:03:15;;;;;;;78.47;32.65;;;;;;;;;;5017299;28;20022;-67
2022/03/25 03:05:41;;;;;;;75.60;33.65;;;;;;;;;;5012077;28;20371;-68
2022/03/25 03:08:06;;;;;;;75.40;33.03;;;;;;;;;;5018412;28;20033;-68
2022/03/25 03:10:31;;;;;;;74.75;35.10;;;;;;;;;;5030256;28;20025;-68
2022/03/25 03:12:58;;;;;;;75.43;33.30;;;;;;;;;;5000326;28;20030;-68
2022/03/25 03:15:24;;;;;;;73.63;33.80;;;;;;;;;;5012515;28;20022;-68
2022/03/25 03:17:50;;;;;;;79.82;33.92;;;;;;;;;;5017105;28;20033;-68
2022/03/25 03:20:16;;;;;;;80.85;33.92;;;;;;;;;;5022888;28;20029;-67
2022/03/25 03:22:41;;;;;;;75.40;33.83;;;;;;;;;;5022674;28;20013;-68
2022/03/25 03:25:07;;;;;;;83.78;35.17;;;;;;;;;;5025267;28;20013;-68
2022/03/25 03:27:32;;;;;;;73.90;31.85;;;;;;;;;;5014717;28;20021;-67
2022/03/25 03:29:58;;;;;;;73.88;33.22;;;;;;;;;;5017045;28;20028;-67
2022/03/25 03:32:25;;;;;;;76.07;33.05;;;;;;;;;;5022857;28;20014;-68
2022/03/25 03:34:50;;;;;;;72.07;32.53;;;;;;;;;;5019921;28;20501;-67
2022/03/25 03:37:16;;;;;;;74.18;34.22;;;;;;;;;;5018666;28;20057;-67
2022/03/25 03:39:41;;;;;;;75.15;33.85;;;;;;;;;;5026577;28;20056;-67
2022/03/25 03:42:06;;;;;;;71.28;31.95;;;;;;;;;;5026282;28;20033;-68
2022/03/25 03:44:31;;;;;;;79.03;34.03;;;;;;;;;;5021157;28;20098;-68
2022/03/25 03:46:58;;;;;;;70.82;31.55;;;;;;;;;;5014458;28;20036;-67
2022/03/25 03:49:23;;;;;;;75.45;33.08;;;;;;;;;;5018465;28;20013;-67
2022/03/25 03:51:48;;;;;;;78.13;32.10;;;;;;;;;;5023585;28;20064;-68
2022/03/25 03:54:13;;;;;;;78.82;33.75;;;;;;;;;;5024061;28;20048;-68
2022/03/25 03:56:39;;;;;;;74.55;32.15;;;;;;;;;;5019136;28;20022;-67
2022/03/25 03:59:04;;;;;;;75.93;32.25;;;;;;;;;;5020953;28;20359;-67
2022/03/25 04:01:29;;;;;;;66.63;30.20;;;;;;;;;;5020389;28;20497;-67
2022/03/25 04:03:54;;;;;;;76.72;33.80;;;;;;;;;;5021935;28;20040;-67
2022/03/25 04:06:22;;;;;;;68.35;31.85;;;;;;;;;;5021945;28;20143;-67
2022/03/25 04:08:47;;;;;;;73.28;33.20;;;;;;;;;;5011837;28;20024;-68
2022/03/25 04:11:12;;;;;;;79.53;33.55;;;;;;;;;;5021879;28;20029;-67
2022/03/25 04:13:37;;;;;;;77.07;35.40;;;;;;;;;;5011328;28;20038;-67
2022/03/25 04:16:03;;;;;;;81.53;36.03;;;;;;;;;;5015227;28;20029;-67
2022/03/25 04:18:28;;;;;;;76.57;32.28;;;;;;;;;;5019530;28;20067;-68
2022/03/25 04:20:53;;;;;;;79.20;34.78;;;;;;;;;;5025394;28;20021;-67
2022/03/25 04:23:19;;;;;;;92.63;35.20;;;;;;;;;;5008733;28;20018;-67
2022/03/25 04:25:44;;;;;;;74.95;33.65;;;;;;;;;;5015703;28;20037;-68
2022/03/25 04:28:10;;;;;;;76.40;33.22;;;;;;;;;;5006788;28;20029;-68
2022/03/25 04:30:37;;;;;;;79.22;33.90;;;;;;;;;;5008918;28;20104;-67
2022/03/25 04:33:02;;;;;;;77.82;34.28;;;;;;;;;;5015460;28;20024;-68
2022/03/25 04:35:28;;;;;;;77.00;32.58;;;;;;;;;;5016364;28;20470;-67
2022/03/25 04:37:54;;;;;;;78.35;32.50;;;;;;;;;;5017295;28;20080;-68
2022/03/25 04:40:20;;;;;;;76.47;33.40;;;;;;;;;;5022140;28;20447;-67
2022/03/25 04:42:46;;;;;;;82.40;34.20;;;;;;;;;;5012103;28;20034;-68
2022/03/25 04:45:11;;;;;;;89.80;36.88;;;;;;;;;;5004432;28;20024;-68
2022/03/25 04:47:36;;;;;;;79.57;34.17;;;;;;;;;;5021705;28;20037;-68
2022/03/25 04:50:02;;;;;;;81.70;35.75;;;;;;;;;;5020955;28;20381;-67
2022/03/25 04:52:27;;;;;;;90.38;40.90;;;;;;;;;;5021727;28;20447;-67
2022/03/25 04:54:53;;;;;;;85.18;35.83;;;;;;;;;;5009926;28;20104;-68
2022/03/25 04:57:18;;;;;;;82.70;34.65;;;;;;;;;;5013561;28;20092;-67
2022/03/25 04:59:43;;;;;;;80.18;32.85;;;;;;;;;;5017272;28;20030;-67
2022/03/25 05:02:10;;;;;;;77.10;33.70;;;;;;;;;;5015972;28;20070;-68
2022/03/25 05:04:35;;;;;;;82.55;33.05;;;;;;;;;;5011394;28;20080;-67
2022/03/25 05:07:01;;;;;;;70.32;31.02;;;;;;;;;;5022484;28;20109;-67
2022/03/25 05:09:26;;;;;;;78.60;32.75;;;;;;;;;;5025501;28;20435;-67
2022/03/25 05:11:51;;;;;;;75.22;32.08;;;;;;;;;;5020395;28;20030;-68
2022/03/25 05:14:16;;;;;;;80.35;33.25;;;;;;;;;;5017788;28;20029;-67
2022/03/25 05:16:41;;;;;;;78.80;31.20;;;;;;;;;;5011684;28;20537;-68
2022/03/25 05:19:06;;;;;;;77.57;33.50;;;;;;;;;;5012345;28;20034;-68
2022/03/25 05:21:32;;;;;;;72.20;30.70;;;;;;;;;;5010872;28;20116;-68
2022/03/25 05:23:57;;;;;;;70.78;29.90;;;;;;;;;;5013567;28;20024;-68
2022/03/25 05:26:22;;;;;;;79.13;32.67;;;;;;;;;;4990524;28;20028;-68
2022/03/25 05:28:47;;;;;;;78.47;31.08;;;;;;;;;;5011634;28;20347;-68
2022/03/25 05:31:13;;;;;;;71.32;31.60;;;;;;;;;;5019800;28;20115;-68
2022/03/25 05:33:38;;;;;;;75.32;32.10;;;;;;;;;;5006141;28;20565;-67
2022/03/25 05:36:04;;;;;;;75.93;31.80;;;;;;;;;;5017778;28;20390;-66
2022/03/25 05:38:30;;;;;;;71.97;31.83;;;;;;;;;;4998520;28;20037;-66
2022/03/25 05:40:56;;;;;;;66.57;31.40;;;;;;;;;;5021391;28;20447;-66
2022/03/25 05:43:21;;;;;;;71.75;31.60;;;;;;;;;;5011651;28;20087;-67
2022/03/25 05:45:46;;;;;;;74.75;31.75;;;;;;;;;;5015018;28;20076;-66
2022/03/25 05:48:12;;;;;;;68.90;30.08;;;;;;;;;;5024186;28;20061;-67
2022/03/25 05:50:37;;;;;;;75.18;31.75;;;;;;;;;;5019676;28;20049;-66
2022/03/25 05:53:02;;;;;;;83.35;31.30;;;;;;;;;;5023621;28;20406;-67
2022/03/25 05:55:27;;;;;;;71.65;30.92;;;;;;;;;;5017805;28;20029;-67
2022/03/25 05:57:52;;;;;;;76.97;33.45;;;;;;;;;;5024960;28;20033;-67
2022/03/25 06:00:18;;;;;;;86.90;33.97;;;;;;;;;;5014855;28;20033;-68
2022/03/25 06:02:43;;;;;;;74.53;30.98;;;;;;;;;;5006933;28;20101;-68
2022/03/25 06:05:09;;;;;;;79.75;34.33;;;;;;;;;;5016472;28;20037;-67
2022/03/25 06:07:36;;;;;;;76.43;33.25;;;;;;;;;;5016780;28;20050;-67
2022/03/25 06:10:01;;;;;;;78.80;32.15;;;;;;;;;;5013761;28;20471;-68
2022/03/25 06:12:26;;;;;;;66.65;30.08;;;;;;;;;;5023726;28;20072;-67
2022/03/25 06:14:51;;;;;;;70.53;30.73;;;;;;;;;;5028581;28;20029;-68
2022/03/25 06:17:17;;;;;;;77.70;31.37;;;;;;;;;;5026175;28;20028;-67
2022/03/25 06:19:42;;;;;;;82.82;31.08;;;;;;;;;;5027148;28;20787;-68
2022/03/25 06:22:07;;;;;;;74.72;32.65;;;;;;;;;;5015788;28;20448;-67
2022/03/25 06:24:32;;;;;;;80.00;32.10;;;;;;;;;;5007847;28;20068;-67
2022/03/25 06:26:57;;;;;;;70.50;29.85;;;;;;;;;;5020076;28;20025;-67
2022/03/25 06:29:23;;;;;;;74.72;31.65;;;;;;;;;;5019651;28;20052;-68
2022/03/25 06:31:48;;;;;;;76.10;31.50;;;;;;;;;;5016900;28;20627;-67
2022/03/25 06:34:20;;;;;;;76.13;31.17;;;;;;;;;;5013327;28;20033;-67
2022/03/25 06:36:45;;;;;;;70.53;30.83;;;;;;;;;;5017222;28;20092;-67
2022/03/25 06:39:10;;;;;;;86.00;33.63;;;;;;;;;;5009601;28;20060;-68
2022/03/25 06:41:35;;;;;;;69.38;30.63;;;;;;;;;;5009274;28;20092;-68
2022/03/25 06:44:01;;;;;;;65.82;30.83;;;;;;;;;;5012338;28;20029;-68
2022/03/25 06:46:26;;;;;;;81.32;31.70;;;;;;;;;;5024881;28;20100;-68
2022/03/25 06:48:52;;;;;;;71.78;30.90;;;;;;;;;;5021817;28;20025;-69
2022/03/25 06:51:18;;;;;;;66.18;30.13;;;;;;;;;;5026802;28;20394;-69
2022/03/25 06:53:44;;;;;;;65.47;31.55;;;;;;;;;;5018270;28;20030;-69
2022/03/25 06:56:09;;;;;;;55.83;28.00;;;;;;;;;;5020923;28;20099;-67
2022/03/25 06:58:37;;;;;;;63.63;30.63;;;;;;;;;;5011524;28;20482;-66
2022/03/25 07:01:02;;;;;;;67.03;29.80;;;;;;;;;;5020639;28;20018;-66
2022/03/25 07:03:28;;;;;;;64.78;29.35;;;;;;;;;;5026820;28;20017;-68
2022/03/25 07:05:53;;;;;;;65.18;30.63;;;;;;;;;;5010510;28;20024;-68
2022/03/25 07:08:22;;;;;;;55.60;28.33;;;;;;;;;;5015110;28;20021;-68
2022/03/25 07:10:48;;;;;;;59.97;30.63;;;;;;;;;;5020171;28;20025;-68
2022/03/25 07:13:13;;;;;;;60.05;31.58;;;;;;;;;;5025883;28;20841;-67
2022/03/25 07:15:38;;;;;;;58.63;33.05;;;;;;;;;;5019119;28;20061;-68
2022/03/25 07:18:04;;;;;;;60.65;30.65;;;;;;;;;;5002791;28;20593;-68
2022/03/25 07:20:29;;;;;;;62.15;32.53;;;;;;;;;;5024103;28;20021;-68
2022/03/25 07:22:54;;;;;;;68.60;31.63;;;;;;;;;;5020908;28;20109;-68
2022/03/25 07:25:20;;;;;;;65.90;32.83;;;;;;;;;;5018464;28;20014;-68
2022/03/25 07:27:46;;;;;;;67.28;33.58;;;;;;;;;;5024882;28;20462;-68
2022/03/25 07:30:12;;;;;;;60.50;34.20;;;;;;;;;;4992797;28;20486;-68
2022/03/25 07:32:38;;;;;;;62.55;34.78;;;;;;;;;;5004990;28;20386;-68
2022/03/25 07:35:03;;;;;;;62.47;32.03;;;;;;;;;;4998391;28;20025;-68
2022/03/25 07:37:28;;;;;;;63.58;34.78;;;;;;;;;;5006102;28;20060;-68
2022/03/25 07:39:54;;;;;;;59.20;34.03;;;;;;;;;;5012195;28;20358;-68
2022/03/25 07:42:19;;;;;;;58.83;35.25;;;;;;;;;;5018030;28;20280;-69
2022/03/25 07:44:44;;;;;;;62.33;33.33;;;;;;;;;;5009912;28;21007;-68
2022/03/25 07:47:11;;;;;;;57.03;35.70;;;;;;;;;;5003577;28;20022;-68
2022/03/25 07:49:38;;;;;;;60.78;35.72;;;;;;;;;;5005930;28;20493;-68
2022/03/25 07:52:04;;;;;;;64.20;37.50;;;;;;;;;;5020764;28;20041;-68
2022/03/25 07:54:29;;;;;;;61.92;35.10;;;;;;;;;;5009458;28;20034;-68
2022/03/25 07:56:57;;;;;;;59.40;35.20;;;;;;;;;;4985883;28;20066;-69
2022/03/25 07:59:23;;;;;;;56.60;34.58;;;;;;;;;;5017674;28;20021;-68
2022/03/25 08:01:48;;;;;;;54.40;33.75;;;;;;;;;;5019705;28;20026;-69
2022/03/25 08:04:14;;;;;;;51.50;33.97;;;;;;;;;;5021669;28;20022;-69
2022/03/25 08:06:40;;;;;;;58.97;33.92;;;;;;;;;;5020259;28;20490;-69
2022/03/25 08:09:05;;;;;;;54.83;35.10;;;;;;;;;;5006335;28;20025;-68
2022/03/25 08:11:31;;;;;;;59.90;37.65;;;;;;;;;;5018980;28;20026;-69
2022/03/25 08:13:56;;;;;;;56.50;35.33;;;;;;;;;;5021040;28;20030;-69
2022/03/25 08:16:21;;;;;;;65.07;36.60;;;;;;;;;;5020498;28;20271;-68
2022/03/25 08:18:46;;;;;;;58.90;36.73;;;;;;;;;;5017537;28;20283;-68
2022/03/25 08:21:11;;;;;;;59.90;37.53;;;;;;;;;;5026175;28;20439;-69
2022/03/25 08:29:05;;;;;;;61.13;36.53;;;;;;;;;;5021853;28;20033;-69
2022/03/25 08:31:30;;;;;;;57.92;37.00;;;;;;;;;;5014134;28;20030;-69
2022/03/25 08:33:55;;;;;;;57.90;35.90;;;;;;;;;;5007830;28;20030;-69
2022/03/25 08:36:20;;;;;;;55.90;34.03;;;;;;;;;;5026541;28;20021;-69
2022/03/25 08:38:46;;;;;;;61.87;36.20;;;;;;;;;;5026354;28;20025;-69
2022/03/25 08:41:11;;;;;;;60.60;35.40;;;;;;;;;;5016630;28;20326;-69
2022/03/25 08:43:37;;;;;;;56.25;37.03;;;;;;;;;;5021632;28;20018;-69
2022/03/25 08:46:03;;;;;;;60.85;37.13;;;;;;;;;;5022280;28;20488;-69
2022/03/25 08:48:28;;;;;;;71.90;39.17;;;;;;;;;;5011572;28;20479;-69
2022/03/25 08:50:54;;;;;;;56.05;34.70;;;;;;;;;;5026269;28;20079;-69
2022/03/25 08:53:19;;;;;;;69.20;35.70;;;;;;;;;;5021787;28;20018;-69
2022/03/25 08:55:45;;;;;;;63.90;39.53;;;;;;;;;;5018797;28;20037;-68
2022/03/25 08:58:11;;;;;;;65.70;37.28;;;;;;;;;;5029361;28;20522;-69
2022/03/25 09:00:37;;;;;;;63.65;38.13;;;;;;;;;;4992414;28;20034;-68
2022/03/25 09:03:02;;;;;;;69.05;37.15;;;;;;;;;;5017982;28;20431;-68
2022/03/25 09:05:27;;;;;;;62.75;37.92;;;;;;;;;;5010868;28;20014;-68
2022/03/25 09:07:53;;;;;;;68.30;39.50;;;;;;;;;;5019807;28;20021;-69
2022/03/25 09:10:18;;;;;;;64.93;35.80;;;;;;;;;;5012627;28;20030;-69
2022/03/25 09:12:44;;;;;;;62.43;36.37;;;;;;;;;;5001464;28;20360;-68
2022/03/25 09:15:10;;;;;;;66.97;35.83;;;;;;;;;;5018287;28;20037;-68
2022/03/25 09:17:35;;;;;;;65.40;36.47;;;;;;;;;;5008230;28;20443;-68
2022/03/25 09:20:03;;;;;;;68.25;34.83;;;;;;;;;;5012445;28;20022;-69
2022/03/25 09:22:28;;;;;;;75.05;37.38;;;;;;;;;;5024678;28;20382;-68
2022/03/25 09:24:54;;;;;;;69.78;36.20;;;;;;;;;;5012629;28;20034;-68
2022/03/25 09:27:19;;;;;;;62.47;34.47;;;;;;;;;;5009075;28;20054;-68
2022/03/25 09:29:44;;;;;;;69.13;34.87;;;;;;;;;;5013582;28;20284;-68
2022/03/25 09:32:10;;;;;;;74.55;34.58;;;;;;;;;;5014632;28;20271;-68
2022/03/25 09:37:21;;;;;;;70.75;33.35;;;;;;;;;;5007961;28;20044;-68
2022/03/25 09:39:46;;;;;;;63.33;30.45;;;;;;;;;;5016927;28;20513;-68
2022/03/25 09:42:12;;;;;;;65.85;34.28;;;;;;;;;;5001343;28;20026;-68
2022/03/25 09:44:40;;;;;;;54.35;29.67;;;;;;;;;;5009586;28;20593;-69
2022/03/25 09:47:05;;;;;;;60.60;27.48;;;;;;;;;;5023848;28;20013;-68
2022/03/25 09:49:30;;;;;;;47.55;23.42;;;;;;;;;;5019577;28;20064;-69
2022/03/25 09:51:56;;;;;;;51.75;20.55;;;;;;;;;;5016094;28;20029;-69
2022/03/25 09:54:21;;;;;;;35.22;12.40;;;;;;;;;;5016519;28;20026;-69
2022/03/25 09:56:47;;;;;;;18.83;7.83;;;;;;;;;;5008724;28;20642;-69
2022/03/25 09:59:17;;;;;;;21.02;9.00;;;;;;;;;;5006275;28;20268;-69
2022/03/25 10:01:42;;;;;;;26.73;9.07;;;;;;;;;;5011399;28;20045;-69
2022/03/25 10:04:08;;;;;;;26.83;8.38;;;;;;;;;;5003597;28;20026;-69
2022/03/25 10:06:44;;;;;;;25.03;7.00;;;;;;;;;;5001178;28;20535;-69
2022/03/25 10:09:09;;;;;;;26.00;8.05;;;;;;;;;;5007181;28;20276;-69
2022/03/25 10:11:35;;;;;;;20.73;7.30;;;;;;;;;;5005880;28;20032;-69
2022/03/25 10:14:15;;;;;;;22.25;8.55;;;;;;;;;;5011378;28;20416;-69
2022/03/25 10:16:41;;;;;;;30.60;9.43;;;;;;;;;;5019749;28;20029;-69
2022/03/25 10:21:51;;;;;;;20.08;7.55;;;;;;;;;;5020371;28;20035;-64
2022/03/25 10:24:19;;;;;;;13.55;4.85;;;;;;;;;;5021058;28;20025;-64
2022/03/25 10:26:45;;;;;;;22.25;7.50;;;;;;;;;;5021996;28;20026;-64
2022/03/25 10:29:21;;;;;;;24.15;7.97;;;;;;;;;;5018829;28;20017;-64
2022/03/25 10:32:04;;;;;;;24.00;8.85;;;;;;;;;;5007531;28;20453;-65
2022/03/25 10:34:29;;;;;;;22.10;8.30;;;;;;;;;;4998072;28;20030;-64
2022/03/25 10:37:01;;;;;;;26.88;7.30;;;;;;;;;;5009446;28;20030;-64
2022/03/25 10:39:28;;;;;;;36.25;9.90;;;;;;;;;;5015124;28;20033;-65
2022/03/25 10:41:56;;;;;;;29.63;9.15;;;;;;;;;;5011719;28;20026;-64
2022/03/25 10:44:32;;;;;;;26.30;10.13;;;;;;;;;;5025364;28;20096;-64
2022/03/25 10:46:57;;;;;;;25.50;10.07;;;;;;;;;;5011918;28;20522;-64
2022/03/25 10:49:22;;;;;;;28.03;9.13;;;;;;;;;;5014234;28;20030;-64
2022/03/25 10:51:55;;;;;;;23.83;8.30;;;;;;;;;;5017934;28;20272;-64
2022/03/25 10:54:27;;;;;;;23.75;8.60;;;;;;;;;;5007085;28;20033;-64
2022/03/25 10:56:56;;;;;;;21.88;8.77;;;;;;;;;;5018027;28;20510;-64
2022/03/25 10:59:27;;;;;;;28.50;8.52;;;;;;;;;;5020462;28;20499;-64
2022/03/25 11:02:00;;;;;;;31.88;9.73;;;;;;;;;;5008721;28;20033;-64
2022/03/25 11:04:25;;;;;;;28.33;8.27;;;;;;;;;;5011931;28;20076;-65
2022/03/25 11:06:51;;;;;;;27.75;8.88;;;;;;;;;;5010841;28;20529;-64
2022/03/25 11:09:17;;;;;;;23.05;8.15;;;;;;;;;;5001577;28;20024;-64
2022/03/25 11:11:43;;;;;;;22.75;8.38;;;;;;;;;;5014829;28;20045;-64
2022/03/25 11:14:09;;;;;;;21.48;7.35;;;;;;;;;;5020135;28;20671;-64
2022/03/25 11:16:35;;;;;;;23.35;8.13;;;;;;;;;;5019485;28;20022;-64
2022/03/25 11:19:01;;;;;;;24.15;7.28;;;;;;;;;;5016913;28;20037;-64
2022/03/25 11:21:27;;;;;;;24.85;8.35;;;;;;;;;;5004689;28;20030;-64
2022/03/25 11:23:54;;;;;;;23.40;8.95;;;;;;;;;;5010477;28;20021;-64
2022/03/25 11:26:21;;;;;;;25.45;8.88;;;;;;;;;;5014669;28;20418;-64
2022/03/25 11:28:50;;;;;;;23.50;8.65;;;;;;;;;;5014023;28;20495;-64
2022/03/25 11:31:15;;;;;;;32.33;10.27;;;;;;;;;;5010369;28;20378;-64
2022/03/25 11:34:03;;;;;;;20.77;9.40;;;;;;;;;;5010576;28;20030;-64
2022/03/25 11:36:28;;;;;;;22.00;8.60;;;;;;;;;;5013166;28;20288;-64
2022/03/25 11:39:14;;;;;;;24.50;10.93;;;;;;;;;;5018915;28;20017;-65
2022/03/25 11:41:39;;;;;;;33.30;11.43;;;;;;;;;;4997640;28;20312;-64
2022/03/25 11:44:17;;;;;;;28.03;12.00;;;;;;;;;;5011803;28;20029;-64
2022/03/25 11:46:58;;;;;;;31.83;12.10;;;;;;;;;;5002453;28;20265;-64
2022/03/25 11:49:23;;;;;;;31.45;12.60;;;;;;;;;;5003504;28;20014;-64
2022/03/25 11:51:49;;;;;;;29.23;12.00;;;;;;;;;;5020748;28;20032;-64
2022/03/25 11:54:32;;;;;;;22.60;11.40;;;;;;;;;;5006682;28;20038;-64
2022/03/25 11:56:58;;;;;;;26.15;11.85;;;;;;;;;;5012709;28;20021;-66
2022/03/25 11:59:24;;;;;;;31.98;12.50;;;;;;;;;;5006465;28;20053;-64
2022/03/25 12:01:49;;;;;;;24.17;11.43;;;;;;;;;;5003690;28;20061;-65
2022/03/25 12:04:32;;;;;;;43.00;11.40;;;;;;;;;;5009218;28;20252;-64
2022/03/25 12:07:00;;;;;;;35.40;13.50;;;;;;;;;;5019469;28;20096;-64
2022/03/25 12:09:33;;;;;;;29.42;11.38;;;;;;;;;;5008877;28;20749;-64
2022/03/25 12:11:58;;;;;;;35.85;11.13;;;;;;;;;;5012139;28;20025;-64
2022/03/25 12:14:33;;;;;;;29.30;11.27;;;;;;;;;;5011539;28;20026;-64
2022/03/25 12:17:01;;;;;;;23.40;11.35;;;;;;;;;;5013623;28;20021;-64
2022/03/25 12:19:29;;;;;;;27.48;12.43;;;;;;;;;;5010456;28;20026;-64
2022/03/25 12:21:54;;;;;;;32.78;11.60;;;;;;;;;;5007957;28;20057;-65
2022/03/25 12:24:19;;;;;;;27.37;12.00;;;;;;;;;;5015761;28;20147;-65
2022/03/25 12:26:44;;;;;;;31.35;12.93;;;;;;;;;;5000224;28;20253;-64
2022/03/25 12:29:10;;;;;;;26.42;13.02;;;;;;;;;;5012097;28;20022;-64
2022/03/25 12:31:35;;;;;;;38.47;13.35;;;;;;;;;;5011500;28;20033;-64
2022/03/25 12:34:02;;;;;;;31.50;12.50;;;;;;;;;;5014146;28;20440;-64
2022/03/25 12:36:31;;;;;;;28.42;13.00;;;;;;;;;;5013348;28;20030;-64
2022/03/25 12:38:57;;;;;;;31.93;12.57;;;;;;;;;;5013383;28;20018;-64
2022/03/25 12:41:26;;;;;;;24.00;10.98;;;;;;;;;;5010137;28;20705;-64
2022/03/25 12:43:58;;;;;;;28.03;11.33;;;;;;;;;;5017648;28;20496;-64
2022/03/25 12:46:24;;;;;;;31.10;10.77;;;;;;;;;;5011740;28;20606;-64
2022/03/25 12:48:49;;;;;;;27.85;10.45;;;;;;;;;;5020974;28;20066;-66
2022/03/25 12:51:18;;;;;;;32.90;11.97;;;;;;;;;;5016030;28;20028;-66
2022/03/25 12:53:46;;;;;;;22.58;10.75;;;;;;;;;;5016972;28;20551;-66
2022/03/25 12:56:12;;;;;;;24.98;10.70;;;;;;;;;;5014366;28;20060;-66
2022/03/25 12:58:38;;;;;;;23.75;10.65;;;;;;;;;;5015414;28;20049;-66
2022/03/25 13:01:04;;;;;;;24.58;10.90;;;;;;;;;;5014012;28;20026;-67
2022/03/25 13:03:33;;;;;;;30.60;11.65;;;;;;;;;;5017317;28;20021;-64
2022/03/25 13:05:59;;;;;;;40.07;9.97;;;;;;;;;;5010178;28;20013;-65
2022/03/25 13:08:24;;;;;;;20.33;9.00;;;;;;;;;;5017458;28;20474;-66
2022/03/25 13:10:56;;;;;;;23.37;10.00;;;;;;;;;;5012474;28;20022;-66
2022/03/25 13:13:22;;;;;;;22.88;9.18;;;;;;;;;;5016521;28;20783;-67
2022/03/25 13:15:47;;;;;;;21.73;9.40;;;;;;;;;;5003324;28;20133;-66
2022/03/25 13:18:13;;;;;;;25.00;8.43;;;;;;;;;;5015243;28;20276;-66
2022/03/25 13:20:40;;;;;;;27.15;10.82;;;;;;;;;;5003287;28;20041;-67
2022/03/25 13:23:10;;;;;;;19.88;9.52;;;;;;;;;;5006590;28;21626;-66
2022/03/25 13:25:38;;;;;;;20.13;8.80;;;;;;;;;;5010921;28;20025;-66
2022/03/25 13:28:08;;;;;;;22.75;8.50;;;;;;;;;;5013541;28;20026;-66
2022/03/25 13:30:33;;;;;;;20.97;9.40;;;;;;;;;;5012467;28;20025;-66
2022/03/25 13:32:59;;;;;;;26.17;9.05;;;;;;;;;;5009686;28;20268;-67
2022/03/25 13:35:47;;;;;;;23.83;9.03;;;;;;;;;;5013921;28;20026;-66
2022/03/25 13:38:13;;;;;;;22.55;8.48;;;;;;;;;;4997175;28;20402;-67
2022/03/25 13:40:40;;;;;;;25.63;9.30;;;;;;;;;;4996701;28;20026;-66
2022/03/25 13:43:08;;;;;;;60.35;11.95;;;;;;;;;;5008415;28;20359;-66
2022/03/25 13:45:33;;;;;;;24.75;8.45;;;;;;;;;;5001943;28;20530;-66
2022/03/25 13:48:11;;;;;;;26.57;8.80;;;;;;;;;;5008222;28;20109;-66
2022/03/25 13:50:47;;;;;;;23.48;9.80;;;;;;;;;;5006909;28;20849;-66
2022/03/25 13:53:14;;;;;;;28.75;9.20;;;;;;;;;;5010287;28;20026;-66
2022/03/25 13:55:41;;;;;;;26.38;9.98;;;;;;;;;;5018796;28;20034;-67
2022/03/25 13:58:13;;;;;;;18.25;9.02;;;;;;;;;;5018363;28;20678;-66
2022/03/25 14:00:40;;;;;;;26.48;9.88;;;;;;;;;;5003695;28;20029;-66
2022/03/25 14:03:05;;;;;;;21.33;8.80;;;;;;;;;;5017354;28;20048;-64
2022/03/25 14:05:32;;;;;;;29.30;9.85;;;;;;;;;;5005798;28;20054;-64
2022/03/25 14:07:58;;;;;;;29.45;11.35;;;;;;;;;;5005848;28;20014;-66
2022/03/25 14:10:23;;;;;;;27.92;9.70;;;;;;;;;;5014527;28;20030;-66
2022/03/25 14:12:59;;;;;;;23.20;10.27;;;;;;;;;;5017663;28;20022;-66
2022/03/25 14:15:26;;;;;;;25.58;9.48;;;;;;;;;;5011856;28;20128;-66
2022/03/25 14:17:52;;;;;;;29.13;10.20;;;;;;;;;;5011276;28;20045;-66
2022/03/25 14:20:18;;;;;;;25.83;12.30;;;;;;;;;;5018121;28;20022;-67
2022/03/25 14:22:44;;;;;;;23.52;10.35;;;;;;;;;;5016518;28;20031;-66
2022/03/25 14:25:11;;;;;;;22.15;10.20;;;;;;;;;;5012611;28;20014;-66